Time;durP1;ratioP1;P1;durP2;ratioP2;P2;SDS_P1;SDS_P2;PMS_P1;PMS_P2;Temp;Humidity;BMP_temperature;BMP_pressure;BME280_temperature;BME280_humidity;BME280_pressure;Samples;Min_cycle;Max_cycle;Signal;HPM_P1;HPM_P2
2020/12/19 00:00:06;;;;;;;28.43;13.30;;;;;;;3.41;81.25;101879.89;127825;1092;105633;-72
2020/12/19 00:02:55;;;;;;;31.07;13.33;;;;;;;3.37;80.29;101882.09;127735;1092;104599;-73
2020/12/19 00:05:24;;;;;;;32.17;14.53;;;;;;;3.33;81.45;101883.48;127778;1092;104475;-72
2020/12/19 00:07:53;;;;;;;32.13;13.93;;;;;;;3.32;80.23;101885.95;127774;1091;104411;-72
2020/12/19 00:10:22;;;;;;;32.60;14.03;;;;;;;3.31;80.77;101891.94;127835;1091;104487;-73
2020/12/19 00:12:51;;;;;;;30.57;13.53;;;;;;;3.31;81.19;101886.74;127804;1092;104561;-73
2020/12/19 00:15:20;;;;;;;32.97;14.47;;;;;;;3.32;80.67;101884.28;127799;1092;104596;-73
2020/12/19 00:17:50;;;;;;;32.13;14.93;;;;;;;3.32;80.30;101883.35;127793;1092;104407;-74
2020/12/19 00:20:19;;;;;;;27.40;12.83;;;;;;;3.30;80.91;101884.91;127780;1091;104472;-72
2020/12/19 00:22:48;;;;;;;29.00;14.53;;;;;;;3.24;81.12;101891.39;127800;1092;104510;-72
2020/12/19 00:25:18;;;;;;;30.77;13.87;;;;;;;3.19;80.93;101886.57;127799;1092;104410;-72
2020/12/19 00:27:47;;;;;;;28.73;13.97;;;;;;;3.19;81.21;101887.47;127761;1091;104411;-72
2020/12/19 00:30:16;;;;;;;29.27;13.67;;;;;;;3.18;80.89;101888.27;127818;1091;104439;-72
2020/12/19 00:32:45;;;;;;;29.43;13.87;;;;;;;3.19;81.28;101879.69;127811;1091;104548;-72
2020/12/19 00:35:14;;;;;;;27.33;12.80;;;;;;;3.21;80.83;101875.56;127803;1091;104955;-74
2020/12/19 00:37:44;;;;;;;29.20;13.17;;;;;;;3.22;81.78;101887.73;127774;1091;104535;-72
2020/12/19 00:40:13;;;;;;;29.00;13.45;;;;;;;3.23;81.23;101879.19;127738;1091;104431;-73
2020/12/19 00:42:42;;;;;;;29.17;12.43;;;;;;;3.20;80.95;101880.63;127808;1091;104414;-74
2020/12/19 00:45:11;;;;;;;30.20;13.10;;;;;;;3.16;81.75;101879.42;127814;1091;104449;-71
2020/12/19 00:47:40;;;;;;;29.73;13.40;;;;;;;3.14;81.19;101882.67;127776;1091;104416;-73
2020/12/19 00:50:09;;;;;;;29.00;13.67;;;;;;;3.15;81.07;101877.63;127795;1091;104442;-74
2020/12/19 00:52:38;;;;;;;31.00;13.30;;;;;;;3.18;80.77;101877.89;127747;1091;104959;-73
2020/12/19 00:55:07;;;;;;;27.47;13.33;;;;;;;3.23;81.28;101867.92;127801;1091;104576;-73
2020/12/19 00:57:37;;;;;;;25.03;11.93;;;;;;;3.23;81.04;101876.59;127797;1092;104474;-73
2020/12/19 01:00:08;;;;;;;27.03;12.43;;;;;;;3.23;81.58;101876.59;127812;1091;104461;-73
2020/12/19 01:02:38;;;;;;;28.33;13.27;;;;;;;3.21;81.01;101864.26;127780;1091;104538;-74
2020/12/19 01:05:09;;;;;;;29.53;13.40;;;;;;;3.18;81.12;101870.11;127796;1091;104509;-74
2020/12/19 01:07:39;;;;;;;27.40;12.30;;;;;;;3.14;81.39;101868.01;127810;1091;104414;-73
2020/12/19 01:10:10;;;;;;;28.37;13.13;;;;;;;3.14;81.65;101872.30;127792;1091;104414;-73
2020/12/19 01:12:40;;;;;;;28.47;12.73;;;;;;;3.12;81.43;101874.76;127807;1091;104654;-73
2020/12/19 01:15:09;;;;;;;25.37;11.37;;;;;;;3.12;81.34;101869.57;127789;1092;104595;-73
2020/12/19 01:17:41;;;;;;;26.43;11.30;;;;;;;3.12;81.11;101872.16;127779;1092;104659;-73
2020/12/19 01:20:12;;;;;;;26.57;12.30;;;;;;;3.12;80.99;101866.08;127827;1091;104417;-74
2020/12/19 01:22:41;;;;;;;27.43;12.47;;;;;;;3.13;81.88;101868.81;127781;1091;104423;-73
2020/12/19 01:25:11;;;;;;;25.23;11.57;;;;;;;3.13;81.25;101873.06;127793;1091;104483;-73
2020/12/19 01:27:42;;;;;;;25.73;11.67;;;;;;;3.12;80.99;101855.70;127746;1092;104407;-73
2020/12/19 01:30:11;;;;;;;26.03;11.93;;;;;;;3.16;81.16;101863.85;127755;1091;104411;-74
2020/12/19 01:32:40;;;;;;;24.87;11.17;;;;;;;3.18;81.32;101861.39;127768;1091;104480;-76
2020/12/19 01:35:09;;;;;;;27.43;11.80;;;;;;;3.18;81.77;101857.14;127772;1091;104544;-74
2020/12/19 01:37:38;;;;;;;25.67;10.63;;;;;;;3.18;80.94;101859.73;127786;1091;104421;-72
2020/12/19 01:40:07;;;;;;;25.57;10.77;;;;;;;3.18;81.39;101862.33;127703;1091;104465;-74
2020/12/19 01:42:37;;;;;;;24.00;10.70;;;;;;;3.18;80.61;101864.92;127674;1091;104577;-74
2020/12/19 01:45:06;;;;;;;25.37;11.47;;;;;;;3.20;81.26;101862.46;127680;1092;104404;-73
2020/12/19 01:47:36;;;;;;;24.43;11.00;;;;;;;3.21;81.55;101862.59;127736;1092;104532;-74
2020/12/19 01:50:07;;;;;;;28.70;11.97;;;;;;;3.22;81.19;101866.98;127748;1092;104407;-73
2020/12/19 01:52:38;;;;;;;25.77;11.73;;;;;;;3.21;81.72;101857.41;127794;1092;104542;-73
2020/12/19 01:55:07;;;;;;;23.00;10.70;;;;;;;3.19;81.62;101864.13;127766;1091;104410;-73
2020/12/19 01:57:41;;;;;;;28.53;11.73;;;;;;;3.18;80.85;101862.33;127808;1092;104420;-73
2020/12/19 02:00:10;;;;;;;25.90;11.07;;;;;;;3.18;81.11;101863.98;127813;1091;104422;-73
2020/12/19 02:02:39;;;;;;;25.53;11.77;;;;;;;3.20;81.81;101863.36;127803;1092;104442;-73
2020/12/19 02:05:08;;;;;;;26.97;11.87;;;;;;;3.21;81.29;101860.00;127798;1091;104459;-73
2020/12/19 02:07:38;;;;;;;26.23;11.67;;;;;;;3.25;81.29;101850.78;127749;1091;104436;-72
2020/12/19 02:10:08;;;;;;;25.13;11.83;;;;;;;3.29;81.63;101851.95;127816;1091;104435;-73
2020/12/19 02:12:37;;;;;;;27.60;11.87;;;;;;;3.30;81.14;101851.19;127818;1092;104410;-73
2020/12/19 02:15:06;;;;;;;26.60;12.17;;;;;;;3.29;81.47;101862.33;127816;1092;104423;-73
2020/12/19 02:17:35;;;;;;;25.70;12.07;;;;;;;3.24;81.43;101851.55;127817;1091;104558;-73
2020/12/19 02:20:04;;;;;;;27.50;12.23;;;;;;;3.25;81.59;101845.59;127718;1092;104474;-73
2020/12/19 02:22:33;;;;;;;24.83;10.97;;;;;;;3.30;81.82;101849.48;127791;1091;104862;-73
2020/12/19 02:25:03;;;;;;;25.57;11.63;;;;;;;3.30;81.08;101851.19;127766;1091;104407;-73
2020/12/19 02:27:32;;;;;;;28.17;11.80;;;;;;;3.30;81.04;101853.78;127814;1092;104411;-73
2020/12/19 02:30:01;;;;;;;26.63;11.53;;;;;;;3.27;80.72;101846.63;127802;1091;104497;-72
2020/12/19 02:32:30;;;;;;;28.57;12.37;;;;;;;3.26;81.74;101851.69;127730;1091;104423;-74
2020/12/19 02:34:59;;;;;;;26.13;11.47;;;;;;;3.23;80.95;101848.06;127781;1091;104942;-73
2020/12/19 02:37:27;;;;;;;29.67;12.47;;;;;;;3.22;81.17;101847.93;127802;1092;104542;-74
2020/12/19 02:40:14;;;;;;;26.20;11.70;;;;;;;3.22;81.04;101841.05;127804;1091;105041;-73
2020/12/19 02:42:44;;;;;;;24.80;11.70;;;;;;;3.21;81.13;101849.63;127756;1091;104416;-74
2020/12/19 02:45:13;;;;;;;24.80;11.13;;;;;;;3.21;81.57;101848.69;127740;1091;104520;-72
2020/12/19 02:47:42;;;;;;;26.00;11.47;;;;;;;3.22;81.14;101848.83;127786;1091;104477;-72
2020/12/19 02:50:11;;;;;;;25.50;11.10;;;;;;;3.22;80.86;101842.73;127795;1092;104462;-72
2020/12/19 02:52:40;;;;;;;26.97;12.37;;;;;;;3.24;81.99;101843.77;127829;1093;104407;-72
2020/12/19 02:55:09;;;;;;;26.90;12.07;;;;;;;3.19;81.50;101840.78;127797;1091;104417;-72
2020/12/19 02:57:38;;;;;;;25.43;11.90;;;;;;;3.19;80.93;101839.87;127795;1092;104535;-72
2020/12/19 03:00:07;;;;;;;28.13;12.60;;;;;;;3.18;81.49;101846.77;127796;1091;104474;-73
2020/12/19 03:02:38;;;;;;;25.87;11.57;;;;;;;3.19;80.79;101848.56;127810;1091;104433;-73
2020/12/19 03:05:07;;;;;;;26.57;12.30;;;;;;;3.22;81.32;101843.64;127826;1092;104488;-73
2020/12/19 03:07:36;;;;;;;26.43;11.23;;;;;;;3.23;81.94;101842.88;127802;1092;104404;-73
2020/12/19 03:10:05;;;;;;;28.47;12.83;;;;;;;3.23;80.94;101850.66;127729;1092;104464;-74
2020/12/19 03:12:34;;;;;;;27.33;13.57;;;;;;;3.24;81.79;101854.14;127815;1092;104430;-71
2020/12/19 03:15:03;;;;;;;28.80;12.73;;;;;;;3.20;81.50;101860.77;127789;1092;104474;-72
2020/12/19 03:17:32;;;;;;;29.03;12.30;;;;;;;3.17;81.25;101860.50;127796;1091;104426;-71
2020/12/19 03:20:01;;;;;;;28.20;12.80;;;;;;;3.14;81.28;101862.82;127827;1091;104432;-72
2020/12/19 03:22:30;;;;;;;28.63;12.83;;;;;;;3.17;80.94;101859.60;127741;1091;104417;-72
2020/12/19 03:24:59;;;;;;;28.17;12.20;;;;;;;3.16;80.96;101862.95;127760;1093;104455;-72
2020/12/19 03:27:28;;;;;;;27.07;12.13;;;;;;;3.15;81.51;101859.47;127804;1092;104482;-72
2020/12/19 03:29:57;;;;;;;28.50;12.10;;;;;;;3.16;81.89;101857.77;127817;1091;104404;-74
2020/12/19 03:32:26;;;;;;;28.17;12.37;;;;;;;3.15;81.58;101859.47;127794;1091;104404;-72
2020/12/19 03:34:54;;;;;;;28.77;11.87;;;;;;;3.11;81.18;101857.37;127680;1092;104541;-73
2020/12/19 03:37:23;;;;;;;27.63;12.87;;;;;;;3.08;81.63;101856.20;127786;1092;104606;-73
2020/12/19 03:39:52;;;;;;;29.13;12.33;;;;;;;3.12;81.95;101859.20;127783;1091;104414;-73
2020/12/19 03:42:21;;;;;;;29.53;12.60;;;;;;;3.12;81.20;101866.98;127794;1092;104542;-73
2020/12/19 03:44:50;;;;;;;26.53;12.13;;;;;;;3.13;81.38;101865.28;127821;1092;105128;-73
2020/12/19 03:47:19;;;;;;;30.57;12.97;;;;;;;3.16;81.19;101869.05;127784;1092;104407;-73
2020/12/19 03:49:48;;;;;;;30.47;13.40;;;;;;;3.18;81.42;101859.73;127793;1092;104407;-72
2020/12/19 03:52:17;;;;;;;27.80;13.17;;;;;;;3.20;81.00;101863.36;127762;1091;104546;-73
2020/12/19 03:54:46;;;;;;;30.83;13.73;;;;;;;3.20;81.50;101857.27;127819;1091;104417;-73
2020/12/19 03:57:15;;;;;;;30.43;13.77;;;;;;;3.21;81.89;101853.87;127816;1092;104570;-73
2020/12/19 03:59:44;;;;;;;33.00;14.77;;;;;;;3.23;82.34;101853.25;127737;1091;104491;-74
2020/12/19 04:02:13;;;;;;;29.60;13.37;;;;;;;3.23;82.26;101862.73;127722;1091;104490;-73
2020/12/19 04:04:42;;;;;;;29.50;13.23;;;;;;;3.21;81.14;101856.47;127721;1092;104541;-74
2020/12/19 04:07:12;;;;;;;31.70;14.23;;;;;;;3.23;81.26;101862.73;127747;1092;104410;-75
2020/12/19 04:09:41;;;;;;;30.80;13.80;;;;;;;3.24;81.13;101868.05;127756;1092;104587;-73
2020/12/19 04:12:10;;;;;;;31.77;14.77;;;;;;;3.28;81.03;101860.53;127755;1091;104865;-73
2020/12/19 04:14:39;;;;;;;30.23;13.57;;;;;;;3.29;82.16;101862.33;127787;1091;104542;-73
2020/12/19 04:17:10;;;;;;;29.97;13.97;;;;;;;3.28;81.15;101865.72;127803;1091;104536;-73
2020/12/19 04:19:40;;;;;;;29.60;13.37;;;;;;;3.28;82.00;101865.72;127796;1091;104413;-73
2020/12/19 04:22:09;;;;;;;31.07;13.90;;;;;;;3.24;81.32;101870.64;127784;1092;104589;-73
2020/12/19 04:24:38;;;;;;;31.17;13.87;;;;;;;3.22;81.42;101877.36;127816;1092;104410;-73
2020/12/19 04:27:07;;;;;;;31.27;13.90;;;;;;;3.21;81.40;101870.37;127820;1092;104432;-72
2020/12/19 04:29:36;;;;;;;27.07;12.90;;;;;;;3.19;80.96;101874.50;127814;1091;104541;-73
2020/12/19 04:32:05;;;;;;;29.87;13.30;;;;;;;3.16;81.49;101878.52;127833;1091;104887;-73
2020/12/19 04:34:34;;;;;;;27.83;13.20;;;;;;;3.14;81.19;101875.79;127813;1092;104563;-73
2020/12/19 04:37:03;;;;;;;30.53;14.17;;;;;;;3.13;81.26;101870.47;127739;1091;104561;-73
2020/12/19 04:39:31;;;;;;;33.23;14.10;;;;;;;3.15;80.98;101875.03;127814;1092;104430;-73
2020/12/19 04:42:01;;;;;;;29.47;14.23;;;;;;;3.16;81.06;101876.83;127780;1091;104472;-73
2020/12/19 04:44:30;;;;;;;31.87;14.47;;;;;;;3.17;81.21;101870.87;127742;1092;104404;-73
2020/12/19 04:46:59;;;;;;;33.43;15.33;;;;;;;3.17;81.22;101870.87;127792;1091;104417;-73
2020/12/19 04:49:29;;;;;;;31.17;14.13;;;;;;;3.17;81.61;101872.57;127774;1091;104507;-73
2020/12/19 04:51:59;;;;;;;33.00;13.60;;;;;;;3.12;82.15;101877.36;127801;1092;104537;-72
2020/12/19 04:54:29;;;;;;;31.27;14.57;;;;;;;3.07;82.13;101876.05;127801;1092;104548;-73
2020/12/19 04:57:00;;;;;;;28.33;13.07;;;;;;;3.01;81.07;101873.81;127813;1092;104407;-73
2020/12/19 04:59:29;;;;;;;33.83;13.97;;;;;;;2.99;81.50;101869.25;127799;1092;104573;-74
2020/12/19 05:02:01;;;;;;;27.60;13.23;;;;;;;2.99;81.86;101866.66;127787;1092;104411;-72
2020/12/19 05:04:30;;;;;;;32.30;13.97;;;;;;;2.98;81.31;101859.68;127804;1093;104423;-71
2020/12/19 05:06:59;;;;;;;30.47;12.20;;;;;;;2.98;81.36;101867.46;127796;1091;104544;-72
2020/12/19 05:09:28;;;;;;;31.63;13.73;;;;;;;2.97;81.88;101873.41;127815;1092;104416;-72
2020/12/19 05:11:58;;;;;;;31.03;13.30;;;;;;;2.98;81.98;101870.95;127745;1092;104567;-74
2020/12/19 05:14:31;;;;;;;28.03;12.20;;;;;;;3.01;81.87;101880.70;127682;1092;104542;-72
2020/12/19 05:17:01;;;;;;;26.52;12.23;;;;;;;3.04;81.90;101871.49;127746;1091;104542;-72
2020/12/19 05:19:30;;;;;;;26.80;12.33;;;;;;;3.04;81.24;101874.09;127742;1091;104423;-72
2020/12/19 05:21:59;;;;;;;26.27;12.80;;;;;;;3.04;81.86;101873.19;127779;1092;104539;-73
2020/12/19 05:24:30;;;;;;;33.10;14.57;;;;;;;3.03;81.18;101866.17;127771;1092;104419;-72
2020/12/19 05:26:59;;;;;;;30.83;13.47;;;;;;;3.01;82.06;101865.14;127704;1092;104417;-73
2020/12/19 05:29:28;;;;;;;30.50;13.50;;;;;;;3.00;81.93;101868.49;127747;1091;104487;-72
2020/12/19 05:32:00;;;;;;;30.17;12.93;;;;;;;3.00;82.13;101871.98;127732;1091;104827;-72
2020/12/19 05:34:29;;;;;;;29.63;13.30;;;;;;;3.01;81.17;101870.33;127759;1092;104419;-72
2020/12/19 05:36:58;;;;;;;30.63;13.70;;;;;;;3.02;81.19;101873.05;127751;1091;104411;-74
2020/12/19 05:39:27;;;;;;;30.03;14.20;;;;;;;3.05;81.14;101873.33;127648;1092;104410;-73
2020/12/19 05:41:56;;;;;;;31.07;13.67;;;;;;;3.07;81.15;101876.05;127704;1091;104414;-72
2020/12/19 05:44:26;;;;;;;29.57;13.60;;;;;;;3.11;81.01;101880.70;127762;1092;104599;-72
2020/12/19 05:46:54;;;;;;;32.03;14.03;;;;;;;3.14;81.53;101885.27;127798;1092;104522;-72
2020/12/19 05:49:23;;;;;;;31.73;13.70;;;;;;;3.14;81.45;101886.17;127720;1092;104548;-72
2020/12/19 05:51:58;;;;;;;31.53;14.83;;;;;;;3.14;81.33;101888.76;127578;1092;104417;-74
2020/12/19 05:54:29;;;;;;;;;;;;;;;3.12;82.33;101885.14;127631;1091;104413;-73
2020/12/19 05:57:01;;;;;;;31.57;13.67;;;;;;;3.10;81.59;101880.58;127534;1092;104471;-74
2020/12/19 05:59:31;;;;;;;29.60;13.10;;;;;;;3.11;82.20;101885.90;127456;1091;104544;-75
2020/12/19 06:02:01;;;;;;;30.07;13.10;;;;;;;3.14;81.86;101888.76;127371;1093;104463;-78
2020/12/19 06:04:30;;;;;;;29.57;13.07;;;;;;;3.17;81.26;101891.63;127588;1091;104570;-74
2020/12/19 06:07:00;;;;;;;31.17;13.87;;;;;;;3.19;81.53;101894.35;127621;1091;104433;-72
2020/12/19 06:09:30;;;;;;;34.57;14.90;;;;;;;3.21;81.86;101885.94;127749;1091;104404;-73
2020/12/19 06:12:06;;;;;;;29.33;13.30;;;;;;;3.23;82.21;101899.05;127742;1092;104513;-73
2020/12/19 06:14:42;;;;;;;36.83;15.17;;;;;;;3.24;81.44;101896.59;127733;1091;104436;-74
2020/12/19 06:17:16;;;;;;;31.00;14.97;;;;;;;3.24;81.56;101899.18;127749;1092;104551;-73
2020/12/19 06:19:46;;;;;;;;;;;;;;;3.26;81.56;101901.91;127790;1091;104535;-72
2020/12/19 06:22:15;;;;;;;31.03;13.17;;;;;;;3.27;81.73;101905.41;127815;1092;104420;-72
2020/12/19 06:24:46;;;;;;;34.20;13.05;;;;;;;3.27;81.87;101905.41;127805;1092;104454;-72
2020/12/19 06:27:40;;;;;;;33.23;14.00;;;;;;;3.31;81.60;101904.91;127806;1091;104558;-72
2020/12/19 06:30:30;;;;;;;32.77;14.80;;;;;;;3.34;81.71;101915.55;127830;1091;104582;-72
2020/12/19 06:33:15;;;;;;;31.00;13.97;;;;;;;3.35;81.78;101914.75;127739;1092;104602;-72
2020/12/19 06:35:50;;;;;;;31.80;14.17;;;;;;;3.34;82.21;101923.34;127748;1091;104554;-74
2020/12/19 06:38:43;;;;;;;30.37;14.23;;;;;;;3.31;81.66;101917.87;127788;1092;104414;-73
2020/12/19 06:41:43;;;;;;;33.50;14.83;;;;;;;3.32;82.13;101919.67;127804;1092;104579;-73
2020/12/19 06:44:16;;;;;;;34.13;15.00;;;;;;;3.36;82.20;101922.67;127605;1092;104471;-75
2020/12/19 06:46:45;;;;;;;34.47;13.73;;;;;;;3.39;81.90;101930.73;127709;1091;104410;-74
2020/12/19 06:49:38;;;;;;;37.13;15.73;;;;;;;3.42;81.97;101933.59;127667;1092;104414;-72
2020/12/19 06:52:09;;;;;;;36.00;16.47;;;;;;;3.47;81.78;101926.20;127739;1091;104539;-72
2020/12/19 06:54:40;;;;;;;36.60;15.43;;;;;;;3.50;81.24;101936.86;127767;1092;104485;-73
2020/12/19 06:57:24;;;;;;;37.03;16.47;;;;;;;3.52;82.10;101930.13;127691;1091;104506;-73
2020/12/19 06:59:55;;;;;;;33.08;15.05;;;;;;;3.53;81.78;101931.03;127434;1093;104546;-74
2020/12/19 07:02:25;;;;;;;34.13;15.00;;;;;;;3.54;80.97;101933.77;127596;1091;104597;-74
2020/12/19 07:04:54;;;;;;;35.10;14.93;;;;;;;3.55;81.17;101932.06;127644;1092;104436;-72
2020/12/19 07:07:26;;;;;;;31.60;13.70;;;;;;;3.54;81.32;101932.86;127643;1091;104404;-74
2020/12/19 07:10:00;;;;;;;31.30;13.50;;;;;;;3.56;81.34;101937.39;127219;1093;104465;-74
2020/12/19 07:12:34;;;;;;;32.48;14.43;;;;;;;3.60;81.52;101935.99;127660;1092;104471;-72
2020/12/19 07:15:05;;;;;;;32.80;14.77;;;;;;;3.62;81.15;101938.72;127566;1092;104506;-72
2020/12/19 07:17:46;;;;;;;34.27;14.70;;;;;;;3.64;81.78;101944.94;127822;1091;104427;-72
2020/12/19 07:20:22;;;;;;;35.80;15.60;;;;;;;3.60;81.03;101933.39;127761;1092;104471;-73
2020/12/19 07:22:52;;;;;;;33.27;15.37;;;;;;;3.58;81.69;101941.05;127746;1091;104416;-75
2020/12/19 07:25:21;;;;;;;32.70;14.63;;;;;;;3.57;81.88;101944.41;127734;1091;104543;-74
2020/12/19 07:27:50;;;;;;;31.43;13.67;;;;;;;3.57;81.40;101941.81;127677;1092;104542;-74
2020/12/19 07:30:19;;;;;;;33.57;14.90;;;;;;;3.60;81.22;101943.78;127575;1092;104408;-75
2020/12/19 07:32:48;;;;;;;31.00;13.83;;;;;;;3.63;80.96;101944.05;127652;1091;104474;-72
2020/12/19 07:35:17;;;;;;;36.50;15.17;;;;;;;3.63;81.69;101950.91;127545;1091;104419;-72
2020/12/19 07:37:49;;;;;;;37.73;16.03;;;;;;;3.63;80.98;101946.64;127648;1091;104436;-74
2020/12/19 07:40:21;;;;;;;35.97;16.43;;;;;;;3.65;80.92;101949.37;127555;1092;104465;-72
2020/12/19 07:43:01;;;;;;;33.60;15.00;;;;;;;3.65;81.41;101945.08;127748;1093;104410;-72
2020/12/19 07:45:30;;;;;;;30.23;14.93;;;;;;;3.69;81.86;101948.84;127779;1092;104906;-73
2020/12/19 07:48:00;;;;;;;34.50;15.77;;;;;;;3.72;81.68;101939.62;127626;1091;104430;-72
2020/12/19 07:50:31;;;;;;;38.07;15.77;;;;;;;3.78;81.18;101936.65;127735;1092;104484;-73
2020/12/19 07:53:02;;;;;;;37.20;15.27;;;;;;;3.81;80.85;101938.61;127664;1091;104438;-72
2020/12/19 07:55:32;;;;;;;29.77;13.60;;;;;;;3.79;81.30;101941.08;127735;1091;104452;-72
2020/12/19 07:58:02;;;;;;;31.35;14.40;;;;;;;3.73;81.30;101941.45;127654;1091;104420;-75
2020/12/19 08:00:32;;;;;;;34.57;14.90;;;;;;;3.72;81.41;101943.91;128338;1092;104397;-73
2020/12/19 08:03:09;;;;;;;32.23;15.23;;;;;;;3.72;80.87;101937.02;127664;1091;104410;-73
2020/12/19 08:05:38;;;;;;;31.47;13.93;;;;;;;3.75;81.12;101936.39;127614;1091;104535;-75
2020/12/19 08:08:07;;;;;;;34.10;16.17;;;;;;;3.76;80.67;101946.01;127680;1092;104420;-73
2020/12/19 08:10:36;;;;;;;36.70;15.93;;;;;;;3.75;81.15;101941.58;127577;1092;104542;-73
2020/12/19 08:13:09;;;;;;;32.83;15.03;;;;;;;3.76;81.39;101943.41;127611;1091;104485;-74
2020/12/19 08:15:38;;;;;;;39.57;16.57;;;;;;;3.78;80.80;101944.44;127751;1093;104432;-72
2020/12/19 08:18:09;;;;;;;37.10;15.67;;;;;;;3.80;81.34;101950.66;127767;1091;104541;-73
2020/12/19 08:20:40;;;;;;;38.83;17.87;;;;;;;3.78;81.38;101941.84;127701;1091;104410;-73
2020/12/19 08:23:10;;;;;;;38.97;16.90;;;;;;;3.80;80.95;101941.98;127777;1091;104911;-72
2020/12/19 08:25:39;;;;;;;36.53;16.87;;;;;;;3.82;81.15;101943.94;127730;1091;104407;-72
2020/12/19 08:28:21;;;;;;;37.23;17.73;;;;;;;3.85;81.62;101939.01;127746;1091;104586;-74
2020/12/19 08:30:50;;;;;;;34.70;16.73;;;;;;;3.91;80.89;101943.80;127712;1092;104576;-72
2020/12/19 08:33:23;;;;;;;35.97;17.13;;;;;;;3.93;81.27;101950.05;127403;1091;104490;-73
2020/12/19 08:35:52;;;;;;;37.57;16.97;;;;;;;3.96;81.50;101946.02;127798;1092;104544;-71
2020/12/19 08:38:23;;;;;;;39.67;17.37;;;;;;;4.01;81.05;101940.32;127721;1092;104417;-72
2020/12/19 08:40:56;;;;;;;40.17;18.50;;;;;;;4.04;80.94;101943.18;127784;1091;104401;-73
2020/12/19 08:43:34;;;;;;;39.50;18.33;;;;;;;4.07;80.88;101939.14;127764;1092;104410;-72
2020/12/19 08:46:09;;;;;;;36.90;17.77;;;;;;;4.09;81.69;101944.47;127724;1091;104573;-73
2020/12/19 08:48:40;;;;;;;46.70;19.13;;;;;;;4.07;80.90;101941.74;127638;1091;104551;-75
2020/12/19 08:51:10;;;;;;;41.73;18.70;;;;;;;4.09;81.08;101927.18;127509;1092;105141;-75
2020/12/19 08:53:40;;;;;;;38.73;17.10;;;;;;;4.17;81.03;101935.63;127594;1092;104423;-75
2020/12/19 08:56:25;;;;;;;39.10;18.60;;;;;;;4.25;80.93;101928.48;127725;1092;104411;-73
2020/12/19 08:58:55;;;;;;;38.10;17.80;;;;;;;4.31;81.69;101929.89;127784;1091;104465;-72
2020/12/19 09:01:25;;;;;;;39.07;18.23;;;;;;;4.34;80.80;101928.34;127757;1092;105024;-72
2020/12/19 09:03:55;;;;;;;38.80;18.10;;;;;;;4.32;81.64;101926.52;127589;1091;104500;-75
2020/12/19 09:06:25;;;;;;;38.30;18.07;;;;;;;4.32;81.30;101913.53;127477;1092;104445;-77
2020/12/19 09:08:54;;;;;;;37.17;17.43;;;;;;;4.34;80.63;101917.95;127587;1091;104554;-72
2020/12/19 09:11:28;;;;;;;35.13;16.50;;;;;;;4.32;80.89;101921.32;127597;1091;104410;-74
2020/12/19 09:14:06;;;;;;;39.50;19.33;;;;;;;4.30;80.49;101912.50;127457;1093;104675;-75
2020/12/19 09:16:45;;;;;;;42.27;18.60;;;;;;;4.32;80.49;101912.63;127630;1091;104541;-73
2020/12/19 09:19:15;;;;;;;38.37;17.60;;;;;;;4.32;80.33;101907.44;127669;1091;104961;-73
2020/12/19 09:21:54;;;;;;;33.90;16.77;;;;;;;4.32;81.18;101910.93;127596;1091;104416;-74
2020/12/19 09:24:24;;;;;;;31.97;14.90;;;;;;;4.30;80.49;101899.51;127885;1091;104471;-73
2020/12/19 09:26:53;;;;;;;37.77;17.40;;;;;;;4.27;80.61;101896.66;127720;1092;104532;-71
2020/12/19 09:29:23;;;;;;;37.13;17.43;;;;;;;4.24;80.61;101906.80;127588;1091;104487;-73
2020/12/19 09:31:52;;;;;;;34.80;15.77;;;;;;;4.22;80.60;101902.23;127574;1092;104471;-74
2020/12/19 09:34:21;;;;;;;35.60;16.50;;;;;;;4.22;80.42;101908.33;127476;1091;104410;-75
2020/12/19 09:36:50;;;;;;;37.70;16.00;;;;;;;4.26;80.54;101905.22;127276;1092;104567;-73
2020/12/19 09:39:19;;;;;;;36.67;17.13;;;;;;;4.27;80.77;101896.66;127772;1092;104432;-73
2020/12/19 09:41:48;;;;;;;37.50;17.77;;;;;;;4.26;80.82;101894.83;127661;1091;104539;-73
2020/12/19 09:44:17;;;;;;;37.13;18.07;;;;;;;4.25;80.62;101903.39;127739;1091;104459;-75
2020/12/19 09:46:47;;;;;;;36.83;17.50;;;;;;;4.28;80.63;101898.45;127610;1092;104420;-72
2020/12/19 09:49:16;;;;;;;39.97;17.30;;;;;;;4.32;80.98;101894.44;127586;1091;104897;-74
2020/12/19 09:51:45;;;;;;;33.20;16.23;;;;;;;4.35;80.16;101896.36;127675;1093;104408;-72
2020/12/19 09:54:14;;;;;;;37.07;17.13;;;;;;;4.37;80.33;101887.92;127571;1091;104554;-75
2020/12/19 09:56:42;;;;;;;42.00;19.30;;;;;;;4.42;80.63;101886.60;127588;1091;104407;-73
2020/12/19 09:59:11;;;;;;;44.20;18.43;;;;;;;4.47;81.20;101887.91;127734;1091;104452;-73
2020/12/19 10:01:41;;;;;;;38.93;17.67;;;;;;;4.49;80.60;101882.84;127703;1091;104486;-73
2020/12/19 10:04:10;;;;;;;39.40;17.73;;;;;;;4.53;80.84;101873.59;127630;1091;104535;-76
2020/12/19 10:06:39;;;;;;;37.17;17.73;;;;;;;4.56;80.39;101874.74;127608;1092;104430;-73
2020/12/19 10:09:08;;;;;;;40.00;18.33;;;;;;;4.65;80.86;101877.20;127738;1091;104477;-72
2020/12/19 10:11:36;;;;;;;38.27;18.27;;;;;;;4.68;80.33;101880.05;127561;1091;104401;-73
2020/12/19 10:14:06;;;;;;;38.83;18.43;;;;;;;4.66;79.95;101869.52;127554;1091;104433;-74
2020/12/19 10:16:35;;;;;;;37.43;17.60;;;;;;;4.63;80.49;101871.88;127564;1092;105079;-74
2020/12/19 10:19:03;;;;;;;34.87;15.73;;;;;;;4.62;80.40;101870.05;127465;1092;104601;-74
2020/12/19 10:21:32;;;;;;;36.97;16.43;;;;;;;4.59;80.61;101877.59;127577;1091;104497;-73
2020/12/19 10:24:01;;;;;;;35.47;16.27;;;;;;;4.61;80.73;101872.52;127726;1092;104432;-72
2020/12/19 10:26:30;;;;;;;35.80;15.80;;;;;;;4.59;80.70;101872.39;127795;1091;104423;-74
2020/12/19 10:28:59;;;;;;;38.07;16.60;;;;;;;4.59;80.46;101864.59;127789;1091;104410;-73
2020/12/19 10:31:29;;;;;;;38.17;17.23;;;;;;;4.61;80.66;101864.72;127699;1091;104452;-73
2020/12/19 10:33:58;;;;;;;35.73;17.63;;;;;;;4.63;80.65;101856.27;127724;1091;104552;-72
2020/12/19 10:36:27;;;;;;;39.53;17.63;;;;;;;4.65;79.93;101851.20;127738;1091;104484;-74
2020/12/19 10:38:57;;;;;;;36.33;17.70;;;;;;;4.64;80.34;101855.50;127714;1091;104436;-71
2020/12/19 10:41:26;;;;;;;38.53;17.80;;;;;;;4.66;80.27;101859.12;127701;1092;104474;-72
2020/12/19 10:43:56;;;;;;;37.30;16.50;;;;;;;4.68;79.84;101854.05;127631;1092;104939;-72
2020/12/19 10:46:27;;;;;;;39.23;17.50;;;;;;;4.72;80.31;101849.98;127726;1091;104468;-72
2020/12/19 10:48:56;;;;;;;37.87;17.77;;;;;;;4.70;79.83;101847.27;127787;1091;104472;-73
2020/12/19 10:51:29;;;;;;;37.23;17.73;;;;;;;4.70;79.94;101848.97;127812;1091;104487;-72
2020/12/19 10:53:58;;;;;;;38.37;17.67;;;;;;;4.70;80.53;101851.57;127820;1091;104417;-72
2020/12/19 10:56:27;;;;;;;40.13;18.47;;;;;;;4.69;80.52;101845.47;127643;1093;104518;-74
2020/12/19 10:58:56;;;;;;;37.47;17.03;;;;;;;4.74;79.97;101848.45;127747;1092;104411;-71
2020/12/19 11:01:25;;;;;;;39.30;17.10;;;;;;;4.75;79.99;101848.53;127743;1092;104410;-72
2020/12/19 11:03:54;;;;;;;39.23;18.00;;;;;;;4.74;80.46;101843.24;127782;1091;104439;-74
2020/12/19 11:06:25;;;;;;;42.70;18.57;;;;;;;4.76;80.49;101849.47;127625;1091;104419;-74
2020/12/19 11:08:55;;;;;;;39.87;18.83;;;;;;;4.73;80.31;101847.52;127186;1093;104580;-74
2020/12/19 11:11:24;;;;;;;44.10;20.40;;;;;;;4.70;80.44;101839.47;127705;1091;104541;-73
2020/12/19 11:13:53;;;;;;;38.57;18.53;;;;;;;4.71;80.01;101835.20;127715;1091;104487;-72
2020/12/19 11:16:23;;;;;;;34.83;16.80;;;;;;;4.71;80.19;101841.30;127696;1092;104483;-72